Lewisetta, Virginia
Current Conditions -  °F | °C
As of 2:53 PM on Monday 26 Jan 2015 (Local Time) from KNUI Reporting Station
Overcast Overcast  
Wind Chill: 33°   Ceiling: 600
Heat Index: 39°   Visibility: 9mi
Dew Point: 34°   Wind: 9mph
Humidity: 82%   Direction: 360°N
Pressure: 29.62"   Gusts: 17mph
Location:  37.9843°N, 76.5087°W
Report Text: KNUI 261953Z AUTO 36008G15KT 9SM OVC006 04/01 A2962 RMK AO2 SLP031 T00390011
Loading
Personal Weather Stations






























Interactive Weather Map New forecast layout! Learn more

10-Day Weather Forecast

Advertisements
Track Severe Weather on mobile